Time;durP1;ratioP1;P1;durP2;ratioP2;P2;SDS_P1;SDS_P2;PMS_P1;PMS_P2;Temp;Humidity;BMP_temperature;BMP_pressure;BME280_temperature;BME280_humidity;BME280_pressure;Samples;Min_cycle;Max_cycle;Signal;HPM_P1;HPM_P2
2021/11/14 00:00:25;;;;;;;51.78;28.25;;;6.70;99.90;;;;;;6248974;23;20482;-89
2021/11/14 00:03:12;;;;;;;59.17;31.00;;;6.70;99.90;;;;;;6227693;23;20035;-88
2021/11/14 00:06:02;;;;;;;56.03;29.52;;;6.70;99.90;;;;;;6250369;22;20024;-90
2021/11/14 00:08:50;;;;;;;50.22;28.70;;;6.70;99.90;;;;;;6225348;23;20028;-89
2021/11/14 00:11:42;;;;;;;54.90;29.15;;;6.60;99.90;;;;;;6227056;23;20047;-88
2021/11/14 00:14:29;;;;;;;53.97;28.65;;;6.70;99.90;;;;;;6225319;23;20032;-89
2021/11/14 00:17:17;;;;;;;46.47;26.98;;;6.60;99.90;;;;;;6226195;23;20343;-86
2021/11/14 00:20:09;;;;;;;49.80;26.83;;;6.60;99.90;;;;;;6226148;23;20347;-87
2021/11/14 00:22:57;;;;;;;37.90;21.10;;;6.60;99.90;;;;;;6225549;23;20031;-89
2021/11/14 00:25:44;;;;;;;45.72;25.85;;;6.60;99.90;;;;;;6223582;23;20082;-88
2021/11/14 00:28:34;;;;;;;48.55;25.88;;;6.70;99.90;;;;;;6245583;23;20052;-90
2021/11/14 00:31:22;;;;;;;43.15;24.63;;;6.70;99.90;;;;;;6263402;22;20024;-87
2021/11/14 00:34:09;;;;;;;47.97;25.73;;;6.60;99.90;;;;;;6241941;23;20011;-87
2021/11/14 00:36:57;;;;;;;46.47;25.27;;;6.60;99.90;;;;;;6266613;23;20031;-88
2021/11/14 00:39:47;;;;;;;46.70;25.45;;;6.60;99.90;;;;;;6249646;22;20017;-86
2021/11/14 00:42:34;;;;;;;44.20;25.27;;;6.60;99.90;;;;;;6248421;22;20036;-87
2021/11/14 00:45:34;;;;;;;;;;;;;;;;;;;;;
2021/11/14 00:48:21;;;;;;;47.55;25.70;;;6.50;99.90;;;;;;6271379;22;20019;-86
2021/11/14 00:51:16;;;;;;;59.55;27.10;;;6.50;99.90;;;;;;6270657;22;20016;-89
2021/11/14 00:54:05;;;;;;;60.35;29.90;;;6.40;99.90;;;;;;6273144;22;20092;-86
2021/11/14 00:56:52;;;;;;;55.95;29.77;;;6.30;99.90;;;;;;6249434;22;20063;-87
2021/11/14 00:59:39;;;;;;;67.35;33.75;;;6.40;99.90;;;;;;6249122;22;20019;-89
2021/11/14 01:02:27;;;;;;;73.90;35.45;;;6.40;99.90;;;;;;6270618;22;20066;-87
2021/11/14 01:05:18;;;;;;;64.15;34.63;;;6.40;99.90;;;;;;6249114;22;20075;-86
2021/11/14 01:08:07;;;;;;;47.92;25.20;;;6.40;99.90;;;;;;6249666;22;20076;-88
2021/11/14 01:10:57;;;;;;;63.95;33.13;;;6.40;99.90;;;;;;6247740;22;20024;-91
2021/11/14 01:13:45;;;;;;;57.35;31.75;;;6.40;99.90;;;;;;6248833;23;20026;-90
2021/11/14 01:16:33;;;;;;;51.00;28.38;;;6.40;99.90;;;;;;6247471;23;20097;-88
2021/11/14 01:19:20;;;;;;;59.80;31.05;;;6.50;99.90;;;;;;6245107;23;20101;-88
2021/11/14 01:22:08;;;;;;;55.65;30.00;;;6.50;99.90;;;;;;6245136;23;20111;-88
2021/11/14 01:24:56;;;;;;;52.40;28.25;;;6.50;99.90;;;;;;6249907;23;20099;-87
2021/11/14 01:27:44;;;;;;;54.22;28.20;;;6.50;99.90;;;;;;6227759;23;20039;-89
2021/11/14 01:30:34;;;;;;;53.92;25.92;;;6.50;99.90;;;;;;6224201;23;20346;-89
2021/11/14 01:33:32;;;;;;;53.90;28.00;;;6.60;99.90;;;;;;6223833;23;20024;-88
2021/11/14 01:36:20;;;;;;;56.85;27.73;;;6.50;99.90;;;;;;6224534;23;20330;-90
2021/11/14 01:39:08;;;;;;;51.28;27.38;;;6.50;99.90;;;;;;6246726;23;20410;-91
2021/11/14 01:41:55;;;;;;;66.03;30.08;;;6.50;99.90;;;;;;6224855;23;20296;-89
2021/11/14 01:44:43;;;;;;;54.92;28.38;;;6.40;99.90;;;;;;6245608;23;20020;-88
2021/11/14 01:47:32;;;;;;;60.33;29.35;;;6.50;99.90;;;;;;6224716;23;20095;-92
2021/11/14 01:50:39;;;;;;;59.85;30.58;;;6.50;99.90;;;;;;6226239;23;20031;-89
2021/11/14 01:53:27;;;;;;;62.17;31.33;;;6.50;99.90;;;;;;6223925;23;20314;-90
2021/11/14 01:56:16;;;;;;;55.92;30.70;;;6.50;99.90;;;;;;6224124;23;20387;-91
2021/11/14 01:59:04;;;;;;;58.00;30.23;;;6.50;99.90;;;;;;6224304;23;20030;-90
2021/11/14 02:01:52;;;;;;;73.20;35.22;;;6.50;99.90;;;;;;6244454;23;20410;-87
2021/11/14 02:04:42;;;;;;;65.82;32.67;;;6.50;99.90;;;;;;6244015;23;20035;-88
2021/11/14 02:07:32;;;;;;;67.47;34.17;;;6.50;99.90;;;;;;6221148;23;20035;-89
2021/11/14 02:10:21;;;;;;;62.97;31.38;;;6.50;99.90;;;;;;6222596;23;20020;-88
2021/11/14 02:13:09;;;;;;;73.22;35.42;;;6.50;99.90;;;;;;6245648;23;20031;-88
2021/11/14 02:15:57;;;;;;;82.88;38.38;;;6.50;99.90;;;;;;6243695;23;20253;-89
2021/11/14 02:18:44;;;;;;;78.57;38.40;;;6.50;99.90;;;;;;6223389;23;20150;-87
2021/11/14 02:21:32;;;;;;;85.85;39.88;;;6.50;99.90;;;;;;6225672;23;20027;-88
2021/11/14 02:24:21;;;;;;;83.75;39.67;;;6.40;99.90;;;;;;6243880;23;20024;-87
2021/11/14 02:27:10;;;;;;;83.00;39.13;;;6.40;99.90;;;;;;6245830;23;20293;-87
2021/11/14 02:30:00;;;;;;;80.53;40.10;;;6.40;99.90;;;;;;6245521;23;20103;-89
2021/11/14 02:32:57;;;;;;;91.50;42.42;;;6.40;99.90;;;;;;6226505;23;20020;-87
2021/11/14 02:36:05;;;;;;;80.75;38.38;;;6.40;99.90;;;;;;6245395;23;20028;-88
2021/11/14 02:38:53;;;;;;;78.85;36.25;;;6.40;99.90;;;;;;6224138;23;20020;-91
2021/11/14 02:41:47;;;;;;;80.20;38.75;;;6.40;99.90;;;;;;6244485;23;20020;-88
2021/11/14 02:44:34;;;;;;;73.28;35.67;;;6.50;99.90;;;;;;6223526;23;20087;-88
2021/11/14 02:47:23;;;;;;;76.95;37.58;;;6.40;99.90;;;;;;6224366;23;20124;-91
2021/11/14 02:50:11;;;;;;;70.38;36.38;;;6.40;99.90;;;;;;6223205;23;20039;-90
2021/11/14 02:53:01;;;;;;;72.18;35.45;;;6.40;99.90;;;;;;6224057;23;20434;-88
2021/11/14 02:55:49;;;;;;;64.65;34.90;;;6.40;99.90;;;;;;6223398;23;20384;-90
2021/11/14 02:58:43;;;;;;;72.85;35.63;;;6.40;99.90;;;;;;6244717;23;20305;-89
2021/11/14 03:01:45;;;;;;;75.75;36.00;;;6.50;99.90;;;;;;6221969;23;20154;-90
2021/11/14 03:04:33;;;;;;;73.57;35.50;;;6.40;99.90;;;;;;6223818;23;20034;-90
2021/11/14 03:07:20;;;;;;;73.80;35.58;;;6.40;99.90;;;;;;6224395;23;20039;-90
2021/11/14 03:10:10;;;;;;;77.55;37.00;;;6.40;99.90;;;;;;6243799;23;20427;-89
2021/11/14 03:13:11;;;;;;;79.00;36.47;;;6.40;99.90;;;;;;6247275;22;20024;-91
2021/11/14 03:16:02;;;;;;;79.60;36.70;;;6.40;99.90;;;;;;6244730;23;20338;-86
2021/11/14 03:18:54;;;;;;;71.00;35.00;;;6.40;99.90;;;;;;6223703;23;20020;-88
2021/11/14 03:21:42;;;;;;;76.25;35.10;;;6.40;99.90;;;;;;6223620;23;20396;-88
2021/11/14 03:24:33;;;;;;;75.63;33.05;;;6.40;99.90;;;;;;6243567;23;20051;-89
2021/11/14 03:27:28;;;;;;;80.72;35.75;;;6.40;99.90;;;;;;6224705;23;20130;-88
2021/11/14 03:30:17;;;;;;;76.18;35.08;;;6.40;99.90;;;;;;6222980;23;20032;-91
2021/11/14 03:33:15;;;;;;;94.28;39.03;;;6.40;99.90;;;;;;6243549;23;20430;-89
2021/11/14 03:36:14;;;;;;;78.53;36.80;;;6.40;99.90;;;;;;6225092;23;20383;-88
2021/11/14 03:39:06;;;;;;;84.35;36.85;;;6.40;99.90;;;;;;6224535;23;20130;-88
2021/11/14 03:41:54;;;;;;;71.75;35.55;;;6.40;99.90;;;;;;6222938;23;20129;-89
2021/11/14 03:44:42;;;;;;;82.95;29.58;;;6.40;99.90;;;;;;6246146;23;20038;-89
2021/11/14 03:47:33;;;;;;;49.83;27.52;;;6.30;99.90;;;;;;6221373;23;20038;-87
2021/11/14 03:50:22;;;;;;;79.72;32.85;;;6.30;99.90;;;;;;6244530;23;20028;-89
2021/11/14 03:53:11;;;;;;;54.58;27.92;;;6.30;99.90;;;;;;6225108;23;20082;-90
2021/11/14 03:56:00;;;;;;;60.25;28.40;;;6.30;99.90;;;;;;6245244;23;20088;-91
2021/11/14 03:58:47;;;;;;;139.63;38.35;;;6.30;99.90;;;;;;6222985;23;20024;-90
2021/11/14 04:01:34;;;;;;;104.63;41.08;;;6.30;99.90;;;;;;6223175;23;20024;-88
2021/11/14 04:04:28;;;;;;;107.60;41.22;;;6.30;99.90;;;;;;6243587;23;20025;-88
2021/11/14 04:07:15;;;;;;;66.18;27.55;;;6.30;99.90;;;;;;6222994;23;20162;-87
2021/11/14 04:10:06;;;;;;;158.43;41.05;;;6.30;99.90;;;;;;6223443;23;20024;-89
2021/11/14 04:12:56;;;;;;;151.10;43.45;;;6.30;99.90;;;;;;6243569;23;20104;-88
2021/11/14 04:15:51;;;;;;;102.15;43.78;;;6.30;99.90;;;;;;6245126;23;20064;-90
2021/11/14 04:18:39;;;;;;;131.57;48.45;;;6.20;99.90;;;;;;6220818;23;20020;-88
2021/11/14 04:21:26;;;;;;;96.65;44.95;;;6.30;99.90;;;;;;6242834;23;20028;-87
2021/11/14 04:24:17;;;;;;;113.10;48.10;;;6.20;99.90;;;;;;6223187;23;20122;-88
2021/11/14 04:27:05;;;;;;;126.38;51.13;;;6.30;99.90;;;;;;6243876;23;20036;-88
2021/11/14 04:29:52;;;;;;;131.50;51.75;;;6.30;99.90;;;;;;6244605;23;20044;-89
2021/11/14 04:32:45;;;;;;;118.33;51.67;;;6.30;99.90;;;;;;6227608;23;20086;-87
2021/11/14 04:35:35;;;;;;;132.98;55.97;;;6.30;99.90;;;;;;6224463;23;20043;-89
2021/11/14 04:38:26;;;;;;;124.25;53.22;;;6.30;99.90;;;;;;6245737;23;20411;-90
2021/11/14 04:41:16;;;;;;;132.35;54.20;;;6.30;99.90;;;;;;6244411;23;20435;-90
2021/11/14 04:44:06;;;;;;;131.05;52.85;;;6.30;99.90;;;;;;6247976;22;20099;-89
2021/11/14 04:46:56;;;;;;;132.40;53.22;;;6.30;99.90;;;;;;6226477;23;20051;-91
2021/11/14 04:49:43;;;;;;;118.03;48.63;;;6.30;99.90;;;;;;6247096;23;20039;-90
2021/11/14 04:52:37;;;;;;;96.47;42.83;;;6.30;99.90;;;;;;6235279;23;20024;-89
2021/11/14 04:55:28;;;;;;;107.32;44.35;;;6.30;99.90;;;;;;6236884;23;20395;-90
2021/11/14 04:58:19;;;;;;;106.50;44.90;;;6.30;99.90;;;;;;6236108;23;20816;-89
2021/11/14 05:01:14;;;;;;;112.90;44.17;;;6.30;99.90;;;;;;6234643;23;20042;-89
2021/11/14 05:04:08;;;;;;;99.97;43.05;;;6.30;99.90;;;;;;6257798;23;20078;-90
2021/11/14 05:06:57;;;;;;;104.55;42.45;;;6.20;99.90;;;;;;6239554;23;20031;-88
2021/11/14 05:09:44;;;;;;;142.27;51.22;;;6.20;99.90;;;;;;6246015;23;20039;-87
2021/11/14 05:12:34;;;;;;;158.10;54.13;;;6.20;99.90;;;;;;6246144;23;20291;-88
2021/11/14 05:15:21;;;;;;;268.13;62.67;;;6.20;99.90;;;;;;6225763;23;20051;-89
2021/11/14 05:18:08;;;;;;;319.08;66.03;;;6.20;99.90;;;;;;6246269;23;20028;-89
2021/11/14 05:20:59;;;;;;;289.38;64.05;;;6.20;99.90;;;;;;6227118;23;20079;-89
2021/11/14 05:23:51;;;;;;;238.20;64.93;;;6.20;99.90;;;;;;6245893;23;20024;-90
2021/11/14 05:26:38;;;;;;;161.52;60.28;;;6.10;99.90;;;;;;6223756;23;20058;-91
2021/11/14 05:29:28;;;;;;;155.88;54.97;;;6.10;99.90;;;;;;6245881;23;20039;-89
2021/11/14 05:32:16;;;;;;;153.88;53.33;;;6.20;99.90;;;;;;6226912;23;20322;-91
2021/11/14 05:35:11;;;;;;;189.10;59.45;;;6.10;99.90;;;;;;6225854;23;20435;-90
2021/11/14 05:37:59;;;;;;;;;;;6.10;99.90;;;;;;6222832;23;20315;-89
2021/11/14 05:40:46;;;;;;;159.25;56.05;;;6.10;99.90;;;;;;6224973;23;19915;-89
2021/11/14 05:43:34;;;;;;;146.70;54.47;;;6.10;99.90;;;;;;6245524;23;20027;-90
2021/11/14 05:46:21;;;;;;;151.68;56.92;;;6.10;99.90;;;;;;6223525;23;20024;-90
2021/11/14 05:49:09;;;;;;;141.60;55.72;;;6.10;99.90;;;;;;6224461;23;20028;-90
2021/11/14 05:51:59;;;;;;;137.85;55.50;;;6.10;99.90;;;;;;6228740;23;20091;-91
2021/11/14 05:54:46;;;;;;;143.05;56.08;;;6.10;99.90;;;;;;6236324;23;20036;-89
2021/11/14 05:57:45;;;;;;;155.35;58.47;;;6.00;99.90;;;;;;6238825;23;20024;-90
2021/11/14 06:06:51;;;;;;;169.40;60.28;;;6.00;99.90;;;;;;6268965;22;20012;-87
2021/11/14 06:09:38;;;;;;;135.27;53.85;;;6.00;99.90;;;;;;6245739;22;20032;-89
2021/11/14 06:12:27;;;;;;;131.25;53.33;;;6.00;99.90;;;;;;6247366;22;20012;-85
2021/11/14 06:15:19;;;;;;;142.65;54.28;;;6.00;99.90;;;;;;6268885;22;20008;-85
2021/11/14 06:18:13;;;;;;;149.15;55.25;;;6.00;99.90;;;;;;6268341;22;20015;-88
2021/11/14 06:21:01;;;;;;;165.85;57.88;;;6.00;99.90;;;;;;6248805;22;20054;-88
2021/11/14 06:23:52;;;;;;;154.50;58.08;;;6.00;99.90;;;;;;6234046;23;20033;-89
2021/11/14 06:26:39;;;;;;;151.60;59.35;;;6.10;99.90;;;;;;6235462;23;20027;-90
2021/11/14 06:29:27;;;;;;;169.85;60.28;;;6.00;99.90;;;;;;6223768;23;20097;-89
2021/11/14 06:32:17;;;;;;;165.38;59.35;;;6.10;99.90;;;;;;6223904;23;20032;-88
2021/11/14 06:35:09;;;;;;;155.35;56.72;;;6.10;99.90;;;;;;6224437;23;20054;-87
2021/11/14 06:37:57;;;;;;;150.65;55.90;;;6.10;99.90;;;;;;6247121;23;20048;-90
2021/11/14 06:40:44;;;;;;;164.55;59.75;;;6.10;99.90;;;;;;6225667;23;20024;-91
2021/11/14 06:43:33;;;;;;;161.88;57.95;;;6.00;99.90;;;;;;6226384;23;20462;-90
2021/11/14 06:46:20;;;;;;;167.35;58.13;;;6.00;99.90;;;;;;6225864;23;20028;-89
2021/11/14 06:49:08;;;;;;;156.20;55.72;;;6.00;99.90;;;;;;6224558;23;20320;-89
2021/11/14 06:51:55;;;;;;;139.70;56.88;;;6.00;99.90;;;;;;6245551;23;20117;-86
2021/11/14 07:00:12;;;;;;;160.38;58.42;;;6.10;99.90;;;;;;6243411;23;20090;-86
2021/11/14 07:02:59;;;;;;;160.73;58.33;;;6.10;99.90;;;;;;6188497;23;20127;-85
2021/11/14 07:05:46;;;;;;;163.02;58.00;;;6.10;99.90;;;;;;6243955;23;20043;-85
2021/11/14 07:08:34;;;;;;;156.20;57.67;;;6.10;99.90;;;;;;6224205;23;20093;-85
2021/11/14 07:11:21;;;;;;;178.45;59.40;;;6.20;99.90;;;;;;6223283;23;20087;-86
2021/11/14 07:14:26;;;;;;;160.70;58.25;;;6.20;99.90;;;;;;6245469;23;20145;-85
2021/11/14 07:17:15;;;;;;;163.02;59.20;;;6.20;99.90;;;;;;6243697;23;20121;-85
2021/11/14 07:20:08;;;;;;;170.32;61.03;;;6.30;99.90;;;;;;6245046;23;20395;-86
2021/11/14 07:22:55;;;;;;;158.88;59.65;;;6.40;99.90;;;;;;6223304;23;20078;-85
2021/11/14 07:25:44;;;;;;;163.13;60.05;;;6.50;99.90;;;;;;6229799;23;20028;-87
2021/11/14 07:28:36;;;;;;;174.30;62.60;;;6.60;99.90;;;;;;6238540;23;20028;-90
2021/11/14 07:31:41;;;;;;;138.20;55.13;;;6.70;99.90;;;;;;6257620;23;20299;-91
2021/11/14 07:47:53;;;;;;;103.47;48.08;;;7.50;99.90;;;;;;5953979;23;20016;-90
2021/11/14 07:51:06;;;;;;;;;;;;;;;;;;;;;
2021/11/14 07:55:30;;;;;;;;;;;;;;;;;;;;;
2021/11/14 08:03:06;;;;;;;75.38;37.63;;;7.80;99.90;;;;;;6066577;23;20089;-92
2021/11/14 08:14:35;;;;;;;48.13;30.10;;;8.00;99.90;;;;;;6161135;23;20042;-90
2021/11/14 08:38:34;;;;;;;53.90;32.55;;;7.50;99.90;;;;;;6175565;23;20084;-90
2021/11/14 08:45:43;;;;;;;56.30;33.10;;;7.50;99.90;;;;;;6262364;23;20008;-88
2021/11/14 08:48:33;;;;;;;53.40;31.65;;;7.80;99.90;;;;;;6237013;23;20048;-92
2021/11/14 08:51:26;;;;;;;49.22;31.40;;;8.10;99.90;;;;;;6255835;23;20024;-90
2021/11/14 08:54:19;;;;;;;;;;;8.10;99.90;;;;;;6236978;23;20428;-89
2021/11/14 09:01:08;;;;;;;;;;;8.00;99.90;;;;;;6238285;22;20024;-90
2021/11/14 09:04:39;;;;;;;;;;;;;;;;;;;;;
2021/11/14 09:09:12;;;;;;;;;;;;;;;;;;;;;
2021/11/14 09:11:42;;;;;;;50.25;28.38;;;8.10;99.90;;;;;;6188513;23;20107;-91
2021/11/14 09:14:32;;;;;;;30.33;19.08;;;8.20;99.90;;;;;;6227366;23;20024;-90
2021/11/14 09:17:20;;;;;;;41.28;25.98;;;8.10;99.90;;;;;;6225772;23;20023;-90
2021/11/14 09:20:11;;;;;;;45.33;28.45;;;8.00;99.90;;;;;;6226559;23;20024;-90
2021/11/14 09:23:01;;;;;;;43.70;27.50;;;7.80;99.90;;;;;;6248175;23;20055;-89
2021/11/14 09:25:49;;;;;;;45.45;28.60;;;7.80;99.90;;;;;;6227494;23;20028;-90
2021/11/14 09:28:42;;;;;;;46.88;28.50;;;7.70;99.90;;;;;;6227918;23;20371;-91
2021/11/14 09:31:39;;;;;;;47.50;29.45;;;7.60;99.90;;;;;;6228853;23;20082;-91
2021/11/14 09:34:39;;;;;;;48.22;30.13;;;7.60;99.90;;;;;;6248689;23;20067;-90
2021/11/14 09:38:14;;;;;;;55.17;32.58;;;7.50;99.90;;;;;;6232694;23;20435;-90
2021/11/14 09:41:15;;;;;;;53.17;31.60;;;7.40;99.90;;;;;;6228490;23;20039;-88
2021/11/14 09:44:17;;;;;;;;;;;;;;;;;;;;;
2021/11/14 09:47:04;;;;;;;59.08;34.03;;;7.40;99.90;;;;;;6250871;22;20024;-88
2021/11/14 09:49:57;;;;;;;57.72;33.38;;;7.40;99.90;;;;;;6227423;23;20039;-91
2021/11/14 09:52:58;;;;;;;53.15;30.85;;;7.50;99.90;;;;;;6231981;23;20024;-92
2021/11/14 09:55:46;;;;;;;54.97;32.90;;;7.50;99.90;;;;;;6227812;23;20047;-88
2021/11/14 09:58:40;;;;;;;52.70;31.48;;;7.40;99.90;;;;;;6251334;23;20039;-88
2021/11/14 10:01:38;;;;;;;54.28;31.85;;;7.50;99.90;;;;;;6251657;23;20479;-88
2021/11/14 10:04:30;;;;;;;51.33;31.10;;;7.50;99.90;;;;;;6227434;23;20020;-90
2021/11/14 10:07:18;;;;;;;53.63;31.27;;;7.70;99.90;;;;;;6237902;23;20094;-90
2021/11/14 10:10:16;;;;;;;47.75;30.33;;;7.70;99.90;;;;;;6243794;23;20023;-89
2021/11/14 10:13:29;;;;;;;47.97;28.30;;;7.90;99.90;;;;;;6233557;23;20381;-91
2021/11/14 10:16:20;;;;;;;45.65;27.42;;;8.10;99.90;;;;;;6227046;23;20086;-90
2021/11/14 10:19:13;;;;;;;43.28;26.23;;;8.20;99.90;;;;;;6245951;23;20024;-90
2021/11/14 10:22:02;;;;;;;41.55;24.85;;;8.30;99.90;;;;;;6246656;23;20032;-89
2021/11/14 10:25:01;;;;;;;39.85;25.33;;;8.40;99.90;;;;;;6246580;23;20024;-90
2021/11/14 10:28:45;;;;;;;;;;;;;;;;;;;;;
2021/11/14 10:31:36;;;;;;;39.13;25.30;;;8.50;99.90;;;;;;6246559;23;20028;-90
2021/11/14 10:34:24;;;;;;;36.95;23.73;;;8.60;99.90;;;;;;6226679;23;20035;-88
2021/11/14 10:37:19;;;;;;;38.85;24.10;;;8.80;99.90;;;;;;6246831;23;20028;-92
2021/11/14 10:40:19;;;;;;;36.53;23.15;;;8.80;99.90;;;;;;6246223;23;20354;-91
2021/11/14 10:43:17;;;;;;;34.83;23.25;;;8.90;99.90;;;;;;6245567;23;20020;-88
2021/11/14 10:46:21;;;;;;;36.08;22.75;;;8.90;99.90;;;;;;6224336;23;20027;-89
2021/11/14 10:49:12;;;;;;;36.45;22.23;;;9.10;99.90;;;;;;6250384;22;20032;-90
2021/11/14 10:52:09;;;;;;;37.17;22.88;;;9.00;99.90;;;;;;6228593;23;20089;-91
2021/11/14 10:59:13;;;;;;;37.85;24.33;;;8.80;99.90;;;;;;6177510;23;20330;-90
2021/11/14 11:02:14;;;;;;;39.22;24.13;;;8.70;99.90;;;;;;6225946;23;20034;-91
2021/11/14 11:05:57;;;;;;;43.90;26.40;;;8.70;99.90;;;;;;6222674;23;20023;-91
2021/11/14 11:09:57;;;;;;;44.03;25.95;;;8.70;99.90;;;;;;6241039;23;20028;-89
2021/11/14 11:12:43;;;;;;;47.03;26.88;;;8.70;99.90;;;;;;6256714;23;20052;-89
2021/11/14 11:15:51;;;;;;;45.67;26.55;;;8.70;99.90;;;;;;6243762;23;20024;-91
2021/11/14 11:19:25;;;;;;;48.45;27.15;;;8.70;99.90;;;;;;6226541;23;20047;-90
2021/11/14 11:22:32;;;;;;;45.53;26.65;;;8.80;99.90;;;;;;6226848;23;20024;-89
2021/11/14 11:26:39;;;;;;;;;;;;;;;;;;;;;
2021/11/14 11:29:43;;;;;;;59.00;31.23;;;8.90;99.90;;;;;;6168242;22;20422;-89
2021/11/14 11:36:05;;;;;;;58.67;32.85;;;8.90;99.90;;;;;;6245713;23;20059;-89
2021/11/14 11:38:58;;;;;;;48.38;28.10;;;9.00;99.90;;;;;;6222921;23;20048;-90
2021/11/14 11:45:27;;;;;;;50.70;26.33;;;9.00;99.90;;;;;;6247605;23;20431;-89
2021/11/14 11:48:27;;;;;;;52.17;27.20;;;9.00;99.90;;;;;;6242407;23;20028;-91
2021/11/14 11:52:06;;;;;;;47.78;24.40;;;9.00;99.90;;;;;;6241799;23;20035;-90
2021/11/14 11:54:52;;;;;;;40.38;23.33;;;9.00;99.90;;;;;;6271601;22;20045;-87
2021/11/14 11:57:39;;;;;;;42.55;22.65;;;9.00;99.90;;;;;;6248622;22;20024;-86
2021/11/14 12:00:28;;;;;;;39.15;21.55;;;9.00;99.90;;;;;;6253029;22;20084;-83
2021/11/14 12:03:59;;;;;;;37.65;21.10;;;9.20;99.90;;;;;;6250941;22;20035;-85
2021/11/14 12:07:11;;;;;;;33.47;19.52;;;9.40;99.90;;;;;;6271746;22;20034;-83
2021/11/14 12:10:19;;;;;;;33.22;18.52;;;9.50;99.90;;;;;;6269933;22;20013;-83
2021/11/14 12:13:07;;;;;;;29.88;17.67;;;9.50;99.90;;;;;;6249854;22;20023;-88
2021/11/14 12:15:57;;;;;;;32.08;17.08;;;9.70;99.90;;;;;;6267506;22;20075;-92
2021/11/14 12:18:50;;;;;;;29.52;17.33;;;9.80;99.90;;;;;;6239843;23;20134;-91
2021/11/14 12:21:37;;;;;;;31.58;18.08;;;9.90;99.90;;;;;;6262032;23;20023;-91
2021/11/14 12:24:52;;;;;;;34.13;19.40;;;9.80;99.90;;;;;;6260191;23;20020;-89
2021/11/14 12:27:39;;;;;;;34.83;21.25;;;9.50;99.90;;;;;;6237848;23;20052;-91
2021/11/14 12:30:34;;;;;;;39.92;21.85;;;9.30;99.90;;;;;;6238201;23;20040;-90
2021/11/14 12:34:10;;;;;;;;;;;;;;;;;;;;;
2021/11/14 13:52:00;;;;;;;45.20;25.95;;;8.50;99.90;;;;;;6241180;22;20024;-91
2021/11/14 14:03:48;;;;;;;41.88;23.73;;;8.50;99.90;;;;;;6128868;23;20013;-91
2021/11/14 14:07:07;;;;;;;38.63;23.88;;;8.60;99.90;;;;;;6080664;23;20409;-92
2021/11/14 14:10:32;;;;;;;42.70;23.58;;;8.60;99.90;;;;;;6077895;23;20058;-90
2021/11/14 14:13:21;;;;;;;44.50;24.13;;;8.60;99.90;;;;;;6075406;23;20085;-88
2021/11/14 14:16:08;;;;;;;39.00;23.65;;;8.60;99.90;;;;;;6108969;23;20161;-88
2021/11/14 14:19:29;;;;;;;47.20;24.58;;;8.60;99.90;;;;;;6105627;23;20045;-92
2021/11/14 14:23:30;;;;;;;47.72;24.98;;;8.60;99.90;;;;;;6113232;23;20022;-91
2021/11/14 14:26:32;;;;;;;47.90;26.27;;;8.60;99.90;;;;;;6215010;23;20326;-88
2021/11/14 14:29:34;;;;;;;46.03;26.48;;;8.50;99.90;;;;;;6216764;23;20254;-90
2021/11/14 14:32:49;;;;;;;47.05;25.45;;;8.50;99.90;;;;;;6219479;23;20038;-91
2021/11/14 14:36:46;;;;;;;49.97;28.10;;;8.40;99.90;;;;;;6147693;23;20097;-90
2021/11/14 14:40:08;;;;;;;54.30;28.48;;;8.40;99.90;;;;;;6080806;23;20112;-89
2021/11/14 14:43:18;;;;;;;50.92;27.70;;;8.40;99.90;;;;;;6059937;23;20363;-91
2021/11/14 14:46:36;;;;;;;;;;;;;;;;;;;;;
2021/11/14 14:49:52;;;;;;;52.47;29.00;;;8.30;99.90;;;;;;6107216;23;20021;-90
2021/11/14 14:52:56;;;;;;;51.90;29.00;;;8.30;99.90;;;;;;6062504;23;20033;-91
2021/11/14 15:00:36;;;;;;;40.00;21.27;;;8.20;99.90;;;;;;6098835;23;20031;-89
2021/11/14 15:04:40;;;;;;;;;;;;;;;;;;;;;
2021/11/14 15:21:05;;;;;;;;;;;;;;;;;;;;;
2021/11/14 15:24:06;;;;;;;;;;;;;;;;;;;;;
2021/11/14 15:27:26;;;;;;;48.65;27.58;;;8.10;99.90;;;;;;5978379;23;20024;-87
2021/11/14 15:30:50;;;;;;;;;;;8.10;99.90;;;;;;5961118;23;20134;-90
2021/11/14 15:34:06;;;;;;;46.78;25.90;;;8.10;99.90;;;;;;6018250;23;19920;-89
2021/11/14 15:36:58;;;;;;;42.83;25.17;;;8.10;99.90;;;;;;6094961;23;20167;-89
2021/11/14 15:44:42;;;;;;;43.45;25.92;;;8.10;99.90;;;;;;6221866;22;20033;-91
2021/11/14 15:47:30;;;;;;;41.33;24.67;;;8.10;99.90;;;;;;6219086;22;20025;-89
2021/11/14 15:50:52;;;;;;;;;;;;;;;;;;;;;
2021/11/14 15:53:54;;;;;;;42.70;23.45;;;8.10;99.90;;;;;;6215008;23;20025;-88
2021/11/14 15:57:48;;;;;;;;;;;;;;;;;;;;;
2021/11/14 16:04:33;;;;;;;42.70;24.17;;;8.10;99.90;;;;;;6070812;23;20011;-92
2021/11/14 16:12:47;;;;;;;41.78;23.10;;;8.00;99.90;;;;;;6023247;23;20011;-89
2021/11/14 16:15:39;;;;;;;41.05;23.15;;;8.10;99.90;;;;;;6014277;23;20316;-90
2021/11/14 16:18:41;;;;;;;41.40;25.10;;;8.10;99.90;;;;;;6060126;23;20158;-89
2021/11/14 16:21:42;;;;;;;40.95;22.80;;;8.10;99.90;;;;;;6106087;23;20250;-90
2021/11/14 16:24:44;;;;;;;42.15;23.33;;;8.10;99.90;;;;;;6108941;23;20026;-91
2021/11/14 16:27:32;;;;;;;39.53;22.50;;;8.10;99.90;;;;;;6110286;23;20033;-88
2021/11/14 16:30:29;;;;;;;41.80;23.42;;;8.10;99.90;;;;;;6110402;23;20026;-89
2021/11/14 16:33:17;;;;;;;40.95;22.88;;;8.10;99.90;;;;;;6109830;23;20061;-90
2021/11/14 16:36:05;;;;;;;37.90;21.92;;;8.10;99.90;;;;;;6120640;23;20149;-89
2021/11/14 16:38:56;;;;;;;33.97;21.05;;;8.10;99.90;;;;;;6222815;23;20088;-87
2021/11/14 16:42:12;;;;;;;37.45;21.15;;;8.20;99.90;;;;;;6223745;23;20025;-89
2021/11/14 16:45:13;;;;;;;36.40;20.42;;;8.10;99.90;;;;;;6224282;23;20033;-89
2021/11/14 16:48:04;;;;;;;32.40;19.27;;;8.10;99.90;;;;;;6227429;23;20021;-89
2021/11/14 16:50:59;;;;;;;32.83;19.70;;;8.10;99.90;;;;;;6226624;23;20028;-91
2021/11/14 16:54:10;;;;;;;37.78;20.65;;;8.20;99.90;;;;;;6229225;23;20029;-90
2021/11/14 16:57:05;;;;;;;36.42;20.88;;;8.10;99.90;;;;;;6224046;23;20110;-90
2021/11/14 17:00:55;;;;;;;36.72;21.42;;;8.20;99.90;;;;;;6223176;23;20078;-89
2021/11/14 17:04:27;;;;;;;35.45;19.45;;;8.20;99.90;;;;;;6219680;23;20051;-89
2021/11/14 17:07:51;;;;;;;;;;;;;;;;;;;;;
2021/11/14 17:36:18;;;;;;;27.85;17.38;;;8.00;99.90;;;;;;6266319;22;20032;-87
2021/11/14 17:39:46;;;;;;;28.40;17.77;;;8.00;99.90;;;;;;6253273;22;20012;-85
2021/11/14 17:47:40;;;;;;;;;;;;;;;;;;;;;
2021/11/14 17:50:47;;;;;;;25.52;17.73;;;8.00;99.90;;;;;;6163978;23;20029;-91
2021/11/14 17:54:34;;;;;;;23.70;15.52;;;8.00;99.90;;;;;;6163856;23;20022;-89
2021/11/14 17:57:51;;;;;;;25.58;17.50;;;8.00;99.90;;;;;;6082203;23;20417;-87
2021/11/14 18:00:42;;;;;;;29.27;17.60;;;8.00;99.90;;;;;;6103299;23;20065;-90
2021/11/14 18:11:07;;;;;;;26.30;16.83;;;8.00;99.90;;;;;;6251011;23;20138;-91
2021/11/14 18:18:13;;;;;;;25.10;16.77;;;8.00;99.90;;;;;;6203391;23;20028;-89
2021/11/14 18:25:24;;;;;;;23.45;15.05;;;8.00;99.90;;;;;;6248063;23;20345;-93
2021/11/14 18:28:37;;;;;;;23.90;16.00;;;7.90;99.90;;;;;;6247707;23;20051;-92
2021/11/14 18:31:26;;;;;;;31.15;17.17;;;7.90;99.90;;;;;;6228969;23;20042;-91
2021/11/14 18:34:25;;;;;;;;;;;;;;;;;;;;;
2021/11/14 18:37:21;;;;;;;22.85;15.27;;;7.90;99.90;;;;;;6255225;23;20039;-91
2021/11/14 18:41:02;;;;;;;23.10;15.57;;;7.90;99.90;;;;;;6116841;23;20108;-91
2021/11/14 18:44:13;;;;;;;23.53;15.47;;;7.90;99.90;;;;;;6011761;23;20098;-88
2021/11/14 18:47:38;;;;;;;24.30;15.73;;;7.90;99.90;;;;;;5993412;23;20251;-90
2021/11/14 18:50:46;;;;;;;22.63;14.73;;;7.90;99.90;;;;;;6016051;23;20051;-91
2021/11/14 18:54:11;;;;;;;22.15;14.75;;;7.90;99.90;;;;;;6014685;23;20048;-90
2021/11/14 18:58:07;;;;;;;23.27;15.40;;;7.90;99.90;;;;;;6038063;23;20033;-90
2021/11/14 19:01:03;;;;;;;23.15;15.70;;;7.90;99.90;;;;;;6218217;23;20035;-89
2021/11/14 19:03:55;;;;;;;22.35;15.38;;;7.90;99.90;;;;;;6252969;23;20391;-90
2021/11/14 19:07:07;;;;;;;23.55;16.85;;;7.90;99.90;;;;;;6253897;23;20347;-89
2021/11/14 19:14:21;;;;;;;28.63;17.42;;;7.80;99.90;;;;;;6195588;23;20031;-90
2021/11/14 19:17:50;;;;;;;24.88;17.25;;;7.80;99.90;;;;;;6234913;23;20035;-90
2021/11/14 19:21:07;;;;;;;25.65;17.48;;;7.80;99.90;;;;;;6159191;23;20034;-91
2021/11/14 19:24:05;;;;;;;29.05;18.10;;;7.80;99.90;;;;;;6164196;23;20025;-88
2021/11/14 19:27:00;;;;;;;25.15;16.63;;;7.80;99.90;;;;;;6142618;23;20025;-89
2021/11/14 19:30:22;;;;;;;26.77;17.33;;;7.80;99.90;;;;;;6135962;23;20104;-88
2021/11/14 19:33:22;;;;;;;27.85;18.48;;;7.80;99.90;;;;;;6140091;23;20041;-91
2021/11/14 19:36:37;;;;;;;31.40;18.83;;;7.80;99.90;;;;;;6158933;23;20156;-92
2021/11/14 19:48:29;;;;;;;27.85;17.65;;;7.70;99.90;;;;;;6161327;23;20016;-90
2021/11/14 19:55:32;;;;;;;29.55;17.13;;;7.70;99.90;;;;;;6124723;23;20010;-88
2021/11/14 19:58:23;;;;;;;26.63;16.58;;;7.70;99.90;;;;;;6237028;22;20020;-89